createdAt,value
2023-01-19T00:01:14.024Z,89.66
2023-01-19T00:04:18.791Z,89.54
2023-01-19T00:07:23.373Z,89.80
2023-01-19T00:10:29.401Z,89.72
2023-01-19T00:13:33.588Z,90.09
2023-01-19T00:16:37.898Z,89.79
2023-01-19T00:19:42.969Z,89.78
2023-01-19T00:22:51.329Z,89.61
2023-01-19T00:25:54.700Z,89.53
2023-01-19T00:28:58.992Z,89.58
2023-01-19T00:32:05.516Z,89.94
2023-01-19T00:35:10.758Z,89.98
2023-01-19T00:38:17.100Z,89.87
2023-01-19T00:41:42.916Z,89.71
2023-01-19T00:44:49.838Z,89.52
2023-01-19T00:47:59.071Z,89.50
2023-01-19T00:51:07.482Z,89.50
2023-01-19T00:54:19.349Z,89.13
2023-01-19T00:57:25.496Z,88.74
2023-01-19T01:00:33.847Z,88.84
2023-01-19T01:03:39.391Z,88.70
2023-01-19T01:06:44.229Z,88.74
2023-01-19T01:09:48.632Z,88.61
2023-01-19T01:12:57.038Z,88.38
2023-01-19T01:16:02.677Z,88.30
2023-01-19T01:19:07.829Z,88.20
2023-01-19T01:22:11.837Z,88.88
2023-01-19T01:25:17.378Z,88.04
2023-01-19T01:28:20.957Z,87.86
2023-01-19T01:31:28.294Z,87.72
2023-01-19T01:34:34.945Z,87.68
2023-01-19T01:37:44.513Z,87.55
2023-01-19T01:40:50.780Z,87.36
2023-01-19T01:44:04.338Z,87.58
2023-01-19T01:47:10.683Z,87.39
2023-01-19T01:50:27.314Z,87.57
2023-01-19T01:53:38.409Z,88.21
2023-01-19T01:56:51.064Z,88.31
2023-01-19T02:00:01.443Z,88.52
2023-01-19T02:03:12.284Z,88.05
2023-01-19T02:06:22.540Z,87.94
2023-01-19T02:09:53.698Z,87.63
2023-01-19T02:13:19.130Z,87.63
2023-01-19T02:16:24.648Z,88.10
2023-01-19T02:19:36.943Z,88.09
2023-01-19T02:22:49.511Z,88.27
2023-01-19T02:25:53.698Z,88.23
2023-01-19T02:29:06.808Z,88.27
2023-01-19T02:32:14.132Z,88.71
2023-01-19T02:35:24.461Z,88.72
2023-01-19T02:38:29.578Z,87.15
2023-01-19T02:41:43.438Z,86.89
2023-01-19T02:44:54.350Z,86.52
2023-01-19T02:48:02.439Z,86.37
2023-01-19T02:51:24.839Z,85.83
2023-01-19T02:54:36.559Z,85.60
2023-01-19T02:57:57.518Z,86.22
2023-01-19T03:01:24.225Z,86.40
2023-01-19T03:05:12.706Z,86.28
2023-01-19T03:08:57.177Z,86.71
2023-01-19T03:12:16.168Z,87.23
2023-01-19T03:15:23.514Z,87.23
2023-01-19T03:18:36.014Z,86.56
2023-01-19T03:21:49.029Z,87.02
2023-01-19T03:25:01.115Z,85.21
2023-01-19T03:28:10.378Z,86.25
2023-01-19T03:31:26.737Z,86.79
2023-01-19T03:34:33.737Z,86.56
2023-01-19T03:37:46.166Z,86.73
2023-01-19T03:41:02.875Z,86.18
2023-01-19T03:44:14.301Z,86.32
2023-01-19T03:47:23.748Z,85.38
2023-01-19T03:50:31.119Z,85.21
2023-01-19T03:53:39.409Z,85.78
2023-01-19T03:56:48.415Z,83.88
2023-01-19T04:00:02.140Z,84.54
2023-01-19T04:03:20.715Z,84.39
2023-01-19T04:06:29.043Z,84.35
2023-01-19T04:09:38.487Z,84.01
2023-01-19T04:12:46.291Z,84.79
2023-01-19T04:15:53.179Z,84.46
2023-01-19T04:19:03.155Z,84.70
2023-01-19T04:22:09.751Z,84.12
2023-01-19T04:25:16.163Z,83.93
2023-01-19T04:28:22.440Z,83.91
2023-01-19T04:31:30.071Z,84.14
2023-01-19T04:34:35.786Z,84.58
2023-01-19T04:37:40.833Z,84.49
2023-01-19T04:40:45.879Z,84.25
2023-01-19T04:43:54.865Z,83.21
2023-01-19T04:47:04.454Z,83.87
2023-01-19T04:50:14.533Z,84.00
2023-01-19T04:53:20.522Z,84.18
2023-01-19T04:56:27.507Z,83.93
2023-01-19T04:59:36.978Z,83.22
2023-01-19T05:02:47.937Z,83.35
2023-01-19T05:05:55.156Z,83.18
2023-01-19T05:09:02.769Z,83.98
2023-01-19T05:12:07.705Z,84.41
2023-01-19T05:15:13.529Z,83.38
2023-01-19T05:18:22.588Z,83.82
2023-01-19T05:21:34.818Z,84.07
2023-01-19T05:24:42.257Z,84.06
2023-01-19T05:27:51.321Z,83.98
2023-01-19T05:30:58.447Z,84.73
2023-01-19T05:34:06.077Z,83.38
2023-01-19T05:37:11.658Z,82.50
2023-01-19T05:40:16.973Z,81.96
2023-01-19T05:43:24.881Z,82.41
2023-01-19T05:46:31.947Z,82.78
2023-01-19T05:49:39.282Z,81.43
2023-01-19T05:52:44.971Z,82.13
2023-01-19T05:55:50.799Z,82.80
2023-01-19T05:58:57.577Z,82.65
2023-01-19T06:02:03.180Z,81.85
2023-01-19T06:05:09.393Z,82.61
2023-01-19T06:08:15.041Z,82.15
2023-01-19T06:11:19.832Z,82.30
2023-01-19T06:14:23.407Z,82.54
2023-01-19T06:17:26.692Z,82.43
2023-01-19T06:20:30.070Z,81.98
2023-01-19T06:23:35.664Z,82.43
2023-01-19T06:26:39.778Z,82.08
2023-01-19T06:29:44.993Z,82.78
2023-01-19T06:32:48.032Z,81.61
2023-01-19T06:35:52.212Z,81.49
2023-01-19T06:38:56.411Z,80.94
2023-01-19T06:41:59.510Z,81.39
2023-01-19T06:45:02.616Z,81.81
2023-01-19T06:48:06.655Z,82.32
2023-01-19T06:51:11.736Z,80.93
2023-01-19T06:54:20.812Z,81.26
2023-01-19T06:57:23.865Z,80.77
2023-01-19T07:00:31.444Z,80.15
2023-01-19T07:04:02.094Z,80.36
2023-01-19T07:07:07.187Z,81.24
2023-01-19T07:10:16.043Z,81.31
2023-01-19T07:13:19.304Z,80.98
2023-01-19T07:16:48.061Z,80.63
2023-01-19T07:20:19.978Z,79.74
2023-01-19T07:23:24.361Z,79.95
2023-01-19T07:26:57.251Z,79.75
2023-01-19T07:30:02.624Z,80.50
2023-01-19T07:50:21.575Z,80.06
2023-01-19T07:53:24.668Z,80.13
2023-01-19T07:56:33.940Z,80.44
2023-01-19T07:59:46.847Z,80.00
2023-01-19T08:03:22.234Z,79.46
2023-01-19T08:06:57.147Z,80.13
2023-01-19T08:10:55.791Z,79.37
2023-01-19T08:14:00.351Z,79.36
2023-01-19T08:17:05.308Z,79.16
2023-01-19T08:20:35.803Z,78.94
2023-01-19T08:23:41.173Z,79.41
2023-01-19T08:32:25.084Z,78.92
2023-01-19T08:35:55.614Z,78.79
2023-01-19T08:39:27.295Z,78.48
2023-01-19T08:42:35.390Z,80.01
2023-01-19T08:46:32.204Z,79.67
2023-01-19T08:49:41.376Z,79.26
2023-01-19T08:58:35.467Z,79.10
2023-01-19T09:02:03.531Z,78.68
2023-01-19T09:11:27.686Z,78.79
2023-01-19T09:38:14.546Z,77.94
2023-01-19T09:41:23.248Z,77.71
2023-01-19T09:44:35.911Z,78.01
2023-01-19T09:47:39.896Z,77.42
2023-01-19T09:50:48.745Z,76.76
2023-01-19T09:53:52.165Z,76.50
2023-01-19T09:56:56.055Z,77.27
2023-01-19T09:59:59.991Z,76.58
2023-01-19T10:03:26.835Z,76.82
2023-01-19T10:06:37.573Z,76.68
2023-01-19T10:10:18.011Z,75.77
2023-01-19T10:13:49.165Z,77.00
2023-01-19T10:17:34.709Z,75.51
2023-01-19T10:20:48.381Z,76.08
2023-01-19T10:23:58.982Z,75.54
2023-01-19T10:27:10.678Z,75.50
2023-01-19T10:30:24.413Z,75.24
2023-01-19T10:33:28.724Z,75.10
2023-01-19T10:36:37.992Z,74.50
2023-01-19T10:39:42.312Z,74.61
2023-01-19T10:42:46.017Z,74.29
2023-01-19T10:45:50.944Z,73.78
2023-01-19T10:48:56.603Z,74.48
2023-01-19T10:52:03.770Z,74.57
2023-01-19T10:55:22.970Z,75.24
2023-01-19T10:58:31.464Z,75.62
2023-01-19T11:01:38.326Z,74.22
2023-01-19T11:04:42.791Z,75.37
2023-01-19T11:07:47.097Z,74.44
2023-01-19T11:11:03.756Z,73.99
2023-01-19T11:14:19.824Z,75.45
2023-01-19T11:17:25.991Z,75.12
2023-01-19T11:20:36.088Z,74.62
2023-01-19T11:23:51.099Z,75.07
2023-01-19T11:27:03.774Z,76.62
2023-01-19T11:30:10.731Z,76.27
2023-01-19T11:33:24.824Z,78.04
2023-01-19T11:36:37.075Z,75.94
2023-01-19T11:39:52.468Z,77.63
2023-01-19T11:42:57.114Z,78.79
2023-01-19T11:46:03.918Z,78.18
2023-01-19T11:49:39.588Z,78.53
2023-01-19T11:53:01.463Z,78.49
2023-01-19T11:56:13.555Z,79.66
2023-01-19T11:59:16.716Z,81.35
2023-01-19T12:02:30.506Z,80.08
2023-01-19T12:06:49.195Z,80.27
2023-01-19T12:10:43.718Z,80.79
2023-01-19T12:19:14.800Z,81.59
2023-01-19T12:22:18.584Z,83.30
2023-01-19T12:25:43.899Z,82.27
2023-01-19T12:29:37.007Z,83.16
2023-01-19T12:32:43.077Z,82.81
2023-01-19T12:36:02.334Z,80.60
2023-01-19T12:39:19.343Z,81.60
2023-01-19T12:42:26.845Z,81.49
2023-01-19T12:46:46.340Z,80.96
2023-01-19T12:49:54.061Z,80.53
2023-01-19T12:53:03.634Z,80.22
2023-01-19T13:02:13.281Z,82.01
2023-01-19T13:05:42.462Z,80.57
2023-01-19T13:09:43.563Z,80.28
2023-01-19T13:13:33.415Z,80.75
2023-01-19T13:17:02.592Z,81.72
2023-01-19T13:20:58.196Z,80.88
2023-01-19T13:24:06.566Z,81.51
2023-01-19T13:28:01.563Z,80.90
2023-01-19T13:31:10.324Z,80.95
2023-01-19T13:34:41.287Z,80.78
2023-01-19T13:37:48.711Z,80.53
2023-01-19T13:40:53.513Z,79.76
2023-01-19T13:44:03.468Z,80.35
2023-01-19T13:47:13.371Z,79.63
2023-01-19T13:50:29.808Z,77.90
2023-01-19T13:53:36.739Z,78.61
2023-01-19T13:56:42.087Z,77.38
2023-01-19T13:59:45.871Z,76.71
2023-01-19T14:03:21.551Z,76.93
2023-01-19T14:06:41.093Z,76.88
2023-01-19T14:09:43.827Z,77.36
2023-01-19T14:12:58.971Z,77.12
2023-01-19T14:16:08.097Z,76.29
2023-01-19T14:19:11.968Z,77.17
2023-01-19T14:23:33.876Z,76.82
2023-01-19T14:27:29.090Z,76.34
2023-01-19T14:30:36.031Z,76.74
2023-01-19T14:33:46.155Z,76.82
2023-01-19T14:36:51.769Z,75.83
2023-01-19T14:39:57.378Z,76.65
2023-01-19T14:43:05.749Z,76.23
2023-01-19T14:46:16.818Z,76.75
2023-01-19T14:49:28.345Z,77.09
2023-01-19T14:52:37.510Z,77.16
2023-01-19T14:55:52.591Z,76.82
2023-01-19T14:59:02.294Z,76.75
2023-01-19T15:02:05.368Z,76.61
2023-01-19T15:05:09.962Z,76.25
2023-01-19T15:08:40.127Z,77.25
2023-01-19T15:11:45.193Z,76.56
2023-01-19T15:14:48.135Z,77.81
2023-01-19T15:17:50.908Z,78.13
2023-01-19T15:20:55.433Z,77.28
2023-01-19T15:24:01.313Z,76.91
2023-01-19T15:27:04.131Z,77.20
2023-01-19T15:30:21.984Z,77.79
2023-01-19T15:33:30.617Z,77.67
2023-01-19T15:36:33.337Z,77.42
2023-01-19T15:39:37.057Z,76.96
2023-01-19T15:42:39.895Z,77.47
2023-01-19T15:45:50.309Z,77.12
2023-01-19T15:48:56.503Z,77.36
2023-01-19T15:51:59.465Z,76.42
2023-01-19T15:55:02.390Z,76.90
2023-01-19T15:58:05.208Z,77.41
2023-01-19T16:01:13.058Z,76.00
2023-01-19T16:04:17.932Z,75.85
2023-01-19T16:07:21.269Z,76.25
2023-01-19T16:10:24.986Z,76.14
2023-01-19T16:13:30.119Z,76.01
2023-01-19T16:16:33.931Z,75.15
2023-01-19T16:19:36.748Z,74.28
2023-01-19T16:22:40.000Z,74.75
2023-01-19T16:25:42.783Z,74.19
2023-01-19T16:28:45.560Z,73.35
2023-01-19T16:31:48.551Z,72.12
2023-01-19T16:34:51.362Z,72.05
2023-01-19T16:38:24.967Z,70.21
2023-01-19T16:41:31.678Z,70.44
2023-01-19T16:44:34.408Z,69.96
2023-01-19T16:47:37.257Z,69.03
2023-01-19T16:50:40.200Z,69.55
2023-01-19T16:53:42.941Z,67.66
2023-01-19T16:56:46.343Z,67.33
2023-01-19T16:59:50.734Z,68.14
2023-01-19T17:03:19.540Z,67.40
2023-01-19T17:06:24.365Z,69.72
2023-01-19T17:09:31.964Z,67.78
2023-01-19T17:12:35.175Z,65.92
2023-01-19T17:15:39.215Z,68.02
2023-01-19T17:18:42.264Z,66.23
2023-01-19T17:21:46.695Z,67.52
2023-01-19T17:24:50.109Z,66.48
2023-01-19T17:28:01.360Z,66.71
2023-01-19T17:31:10.994Z,67.21
2023-01-19T17:34:14.367Z,65.98
2023-01-19T17:37:42.337Z,66.67
2023-01-19T17:40:45.319Z,65.22
2023-01-19T17:43:51.305Z,66.42
2023-01-19T17:46:54.023Z,66.07
2023-01-19T17:49:56.959Z,65.75
2023-01-19T17:52:59.799Z,66.37
2023-01-19T17:56:07.957Z,66.14
2023-01-19T17:59:11.404Z,65.35
2023-01-19T18:02:15.471Z,64.61
2023-01-19T18:05:19.192Z,64.21
2023-01-19T18:08:22.196Z,64.11
2023-01-19T18:11:26.652Z,64.02
2023-01-19T18:14:30.853Z,64.07
2023-01-19T18:17:33.648Z,64.22
2023-01-19T18:21:11.132Z,62.63
2023-01-19T18:24:14.196Z,62.55
2023-01-19T18:27:18.524Z,62.17
2023-01-19T18:30:22.562Z,62.75
2023-01-19T18:34:41.411Z,62.43
2023-01-19T18:37:44.768Z,61.61
2023-01-19T18:41:06.738Z,60.63
2023-01-19T18:44:13.305Z,60.71
2023-01-19T18:47:16.351Z,59.45
2023-01-19T18:50:19.559Z,60.36
2023-01-19T18:53:23.876Z,60.76
2023-01-19T18:56:30.777Z,61.46
2023-01-19T18:59:34.052Z,60.12
2023-01-19T19:02:37.241Z,60.07
2023-01-19T19:05:41.030Z,58.99
2023-01-19T19:08:44.253Z,60.39
2023-01-19T19:12:12.422Z,61.88
2023-01-19T19:15:15.726Z,61.19
2023-01-19T19:18:18.958Z,61.71
2023-01-19T19:21:25.413Z,61.17
2023-01-19T19:24:29.349Z,61.55
2023-01-19T19:27:32.465Z,62.09
2023-01-19T19:30:37.933Z,61.57
2023-01-19T19:34:59.263Z,62.24
2023-01-19T19:38:02.689Z,61.78
2023-01-19T19:41:11.292Z,63.28
2023-01-19T19:44:40.370Z,61.50
2023-01-19T19:47:44.023Z,62.21
2023-01-19T19:51:40.411Z,61.18
2023-01-19T19:54:45.153Z,61.17
2023-01-19T19:57:48.007Z,61.42
2023-01-19T20:00:54.459Z,62.78
2023-01-19T20:04:07.937Z,62.55
2023-01-19T20:07:15.955Z,61.66
2023-01-19T20:10:48.167Z,62.53
2023-01-19T20:13:51.706Z,62.56
2023-01-19T20:17:23.325Z,63.32
2023-01-19T20:20:27.748Z,62.81
2023-01-19T20:23:30.852Z,63.60
2023-01-19T20:26:36.392Z,63.38
2023-01-19T20:29:39.598Z,63.91
2023-01-19T20:32:42.833Z,64.04
2023-01-19T20:35:46.421Z,63.84
2023-01-19T20:38:49.353Z,63.90
2023-01-19T20:41:52.770Z,63.88
2023-01-19T20:44:57.468Z,63.02
2023-01-19T20:48:00.346Z,63.76
2023-01-19T20:51:11.363Z,62.49
2023-01-19T20:54:16.896Z,63.24
2023-01-19T20:57:19.968Z,62.86
2023-01-19T21:00:22.941Z,62.99
2023-01-19T21:03:25.972Z,63.22
2023-01-19T21:06:29.256Z,63.35
2023-01-19T21:09:32.686Z,62.91
2023-01-19T21:12:35.609Z,63.62
2023-01-19T21:15:40.932Z,63.07
2023-01-19T21:18:44.397Z,63.96
2023-01-19T21:21:47.700Z,63.14
2023-01-19T21:24:50.510Z,63.58
2023-01-19T21:27:53.396Z,64.31
2023-01-19T21:30:56.586Z,63.67
2023-01-19T21:33:59.577Z,64.02
2023-01-19T21:37:02.464Z,63.27
2023-01-19T21:40:06.347Z,64.39
2023-01-19T21:43:09.122Z,64.02
2023-01-19T21:47:31.058Z,64.03
2023-01-19T21:50:34.526Z,63.84
2023-01-19T21:53:37.917Z,64.91
2023-01-19T21:56:43.274Z,63.80
2023-01-19T21:59:46.251Z,63.94
2023-01-19T22:03:02.745Z,64.59
2023-01-19T22:06:08.716Z,64.30
2023-01-19T22:09:11.589Z,63.55
2023-01-19T22:12:16.340Z,63.79
2023-01-19T22:16:10.965Z,62.41
2023-01-19T22:19:14.559Z,63.85
2023-01-19T22:22:17.366Z,64.93
2023-01-19T22:25:26.297Z,65.73
2023-01-19T22:28:29.241Z,67.32
2023-01-19T22:31:32.555Z,66.56
2023-01-19T22:34:35.604Z,65.51
2023-01-19T22:37:38.433Z,66.13
2023-01-19T22:45:55.906Z,66.80
2023-01-19T22:49:03.074Z,67.72
2023-01-19T22:52:06.099Z,68.25
2023-01-19T22:55:09.402Z,66.91
2023-01-19T22:58:37.276Z,68.02
2023-01-19T23:06:29.719Z,66.98
2023-01-19T23:09:59.081Z,68.46
2023-01-19T23:13:01.991Z,68.64
2023-01-19T23:16:05.761Z,69.06
2023-01-19T23:20:05.162Z,66.42
2023-01-19T23:23:08.060Z,66.49
2023-01-19T23:26:17.351Z,66.21
2023-01-19T23:29:24.276Z,65.76
2023-01-19T23:32:27.048Z,65.68
2023-01-19T23:35:29.872Z,65.28
2023-01-19T23:39:06.282Z,64.63
2023-01-19T23:42:09.321Z,65.33
2023-01-19T23:45:12.882Z,64.70
2023-01-19T23:48:16.027Z,63.96
2023-01-19T23:51:28.119Z,63.61
2023-01-19T23:54:31.039Z,63.82
2023-01-19T23:57:34.007Z,63.43
